sensor_id;sensor_type;location;lat;lon;timestamp;P1;durP1;ratioP1;P2;durP2;ratioP2
8654;SDS011;13500;52.514;13.462;2023-04-15T00:00:55;33.23;;;26.80;;
8654;SDS011;13500;52.514;13.462;2023-04-15T00:03:25;39.93;;;30.03;;
8654;SDS011;13500;52.514;13.462;2023-04-15T00:05:54;35.40;;;27.90;;
8654;SDS011;13500;52.514;13.462;2023-04-15T00:08:22;38.77;;;29.10;;
8654;SDS011;13500;52.514;13.462;2023-04-15T00:10:50;40.07;;;30.07;;
8654;SDS011;13500;52.514;13.462;2023-04-15T00:13:18;39.77;;;29.70;;
8654;SDS011;13500;52.514;13.462;2023-04-15T00:15:46;39.77;;;29.53;;
8654;SDS011;13500;52.514;13.462;2023-04-15T00:18:14;41.60;;;29.43;;
8654;SDS011;13500;52.514;13.462;2023-04-15T00:20:43;42.30;;;30.47;;
8654;SDS011;13500;52.514;13.462;2023-04-15T00:23:11;38.80;;;29.67;;
8654;SDS011;13500;52.514;13.462;2023-04-15T00:25:39;43.63;;;30.60;;
8654;SDS011;13500;52.514;13.462;2023-04-15T00:28:07;40.03;;;31.23;;
8654;SDS011;13500;52.514;13.462;2023-04-15T00:30:35;40.13;;;29.77;;
8654;SDS011;13500;52.514;13.462;2023-04-15T00:33:03;38.80;;;30.10;;
8654;SDS011;13500;52.514;13.462;2023-04-15T00:35:31;38.60;;;30.23;;
8654;SDS011;13500;52.514;13.462;2023-04-15T00:38:00;37.73;;;28.87;;
8654;SDS011;13500;52.514;13.462;2023-04-15T00:40:28;38.17;;;29.87;;
8654;SDS011;13500;52.514;13.462;2023-04-15T00:42:56;38.00;;;28.83;;
8654;SDS011;13500;52.514;13.462;2023-04-15T00:45:24;38.60;;;30.27;;
8654;SDS011;13500;52.514;13.462;2023-04-15T00:47:53;37.57;;;29.30;;
8654;SDS011;13500;52.514;13.462;2023-04-15T00:50:22;35.93;;;29.17;;
8654;SDS011;13500;52.514;13.462;2023-04-15T00:52:50;36.67;;;28.57;;
8654;SDS011;13500;52.514;13.462;2023-04-15T00:55:19;38.23;;;29.30;;
8654;SDS011;13500;52.514;13.462;2023-04-15T00:57:47;36.77;;;29.50;;
8654;SDS011;13500;52.514;13.462;2023-04-15T01:00:15;37.27;;;28.03;;
8654;SDS011;13500;52.514;13.462;2023-04-15T01:02:44;36.17;;;27.63;;
8654;SDS011;13500;52.514;13.462;2023-04-15T01:05:13;37.57;;;29.47;;
8654;SDS011;13500;52.514;13.462;2023-04-15T01:07:42;36.57;;;29.17;;
8654;SDS011;13500;52.514;13.462;2023-04-15T01:10:11;35.43;;;28.97;;
8654;SDS011;13500;52.514;13.462;2023-04-15T01:12:42;37.53;;;28.60;;
8654;SDS011;13500;52.514;13.462;2023-04-15T01:15:10;37.73;;;28.67;;
8654;SDS011;13500;52.514;13.462;2023-04-15T01:17:38;36.93;;;28.97;;
8654;SDS011;13500;52.514;13.462;2023-04-15T01:20:07;39.97;;;29.60;;
8654;SDS011;13500;52.514;13.462;2023-04-15T01:22:37;37.67;;;28.03;;
8654;SDS011;13500;52.514;13.462;2023-04-15T01:25:08;34.23;;;28.53;;
8654;SDS011;13500;52.514;13.462;2023-04-15T01:27:40;37.50;;;29.23;;
8654;SDS011;13500;52.514;13.462;2023-04-15T01:30:08;38.63;;;29.20;;
8654;SDS011;13500;52.514;13.462;2023-04-15T01:32:37;40.03;;;29.80;;
8654;SDS011;13500;52.514;13.462;2023-04-15T01:35:23;35.23;;;28.33;;
8654;SDS011;13500;52.514;13.462;2023-04-15T01:37:52;37.47;;;29.50;;
8654;SDS011;13500;52.514;13.462;2023-04-15T01:40:20;36.50;;;29.37;;
8654;SDS011;13500;52.514;13.462;2023-04-15T01:42:49;38.70;;;29.37;;
8654;SDS011;13500;52.514;13.462;2023-04-15T01:45:17;37.07;;;28.93;;
8654;SDS011;13500;52.514;13.462;2023-04-15T01:47:45;37.23;;;29.97;;
8654;SDS011;13500;52.514;13.462;2023-04-15T01:50:14;38.03;;;29.20;;
8654;SDS011;13500;52.514;13.462;2023-04-15T01:52:42;38.17;;;30.47;;
8654;SDS011;13500;52.514;13.462;2023-04-15T01:55:10;37.17;;;29.03;;
8654;SDS011;13500;52.514;13.462;2023-04-15T01:57:39;37.07;;;29.30;;
8654;SDS011;13500;52.514;13.462;2023-04-15T02:00:09;36.63;;;28.93;;
8654;SDS011;13500;52.514;13.462;2023-04-15T02:02:40;37.93;;;29.23;;
8654;SDS011;13500;52.514;13.462;2023-04-15T02:05:09;40.23;;;30.23;;
8654;SDS011;13500;52.514;13.462;2023-04-15T02:07:37;37.63;;;29.07;;
8654;SDS011;13500;52.514;13.462;2023-04-15T02:10:05;38.93;;;29.63;;
8654;SDS011;13500;52.514;13.462;2023-04-15T02:12:34;36.60;;;30.10;;
8654;SDS011;13500;52.514;13.462;2023-04-15T02:15:02;37.13;;;28.17;;
8654;SDS011;13500;52.514;13.462;2023-04-15T02:17:34;35.50;;;28.40;;
8654;SDS011;13500;52.514;13.462;2023-04-15T02:20:03;38.67;;;30.10;;
8654;SDS011;13500;52.514;13.462;2023-04-15T02:22:32;37.97;;;28.97;;
8654;SDS011;13500;52.514;13.462;2023-04-15T02:24:59;36.50;;;28.10;;
8654;SDS011;13500;52.514;13.462;2023-04-15T02:27:27;40.70;;;29.80;;
8654;SDS011;13500;52.514;13.462;2023-04-15T02:29:56;37.83;;;29.37;;
8654;SDS011;13500;52.514;13.462;2023-04-15T02:32:23;38.27;;;27.27;;
8654;SDS011;13500;52.514;13.462;2023-04-15T02:34:55;38.97;;;29.50;;
8654;SDS011;13500;52.514;13.462;2023-04-15T02:37:22;40.17;;;28.87;;
8654;SDS011;13500;52.514;13.462;2023-04-15T02:39:54;39.07;;;27.43;;
8654;SDS011;13500;52.514;13.462;2023-04-15T02:42:22;40.00;;;28.40;;
8654;SDS011;13500;52.514;13.462;2023-04-15T02:44:53;39.40;;;29.13;;
8654;SDS011;13500;52.514;13.462;2023-04-15T02:47:26;36.17;;;27.53;;
8654;SDS011;13500;52.514;13.462;2023-04-15T02:49:55;36.87;;;28.30;;
8654;SDS011;13500;52.514;13.462;2023-04-15T02:52:25;35.37;;;27.30;;
8654;SDS011;13500;52.514;13.462;2023-04-15T02:54:54;32.50;;;26.37;;
8654;SDS011;13500;52.514;13.462;2023-04-15T02:57:26;35.93;;;27.37;;
8654;SDS011;13500;52.514;13.462;2023-04-15T02:59:57;33.20;;;25.97;;
8654;SDS011;13500;52.514;13.462;2023-04-15T03:02:25;35.27;;;27.30;;
8654;SDS011;13500;52.514;13.462;2023-04-15T03:04:53;34.83;;;27.13;;
8654;SDS011;13500;52.514;13.462;2023-04-15T03:07:23;36.77;;;27.67;;
8654;SDS011;13500;52.514;13.462;2023-04-15T03:09:52;32.90;;;26.17;;
8654;SDS011;13500;52.514;13.462;2023-04-15T03:12:19;32.77;;;26.13;;
8654;SDS011;13500;52.514;13.462;2023-04-15T03:14:49;31.13;;;25.77;;
8654;SDS011;13500;52.514;13.462;2023-04-15T03:17:20;31.53;;;25.33;;
8654;SDS011;13500;52.514;13.462;2023-04-15T03:19:48;31.30;;;25.20;;
8654;SDS011;13500;52.514;13.462;2023-04-15T03:22:16;30.93;;;25.43;;
8654;SDS011;13500;52.514;13.462;2023-04-15T03:24:46;32.10;;;25.97;;
8654;SDS011;13500;52.514;13.462;2023-04-15T03:27:16;30.83;;;25.53;;
8654;SDS011;13500;52.514;13.462;2023-04-15T03:29:43;32.13;;;25.47;;
8654;SDS011;13500;52.514;13.462;2023-04-15T03:32:13;29.10;;;24.17;;
8654;SDS011;13500;52.514;13.462;2023-04-15T03:34:42;30.20;;;24.10;;
8654;SDS011;13500;52.514;13.462;2023-04-15T03:37:10;31.60;;;25.10;;
8654;SDS011;13500;52.514;13.462;2023-04-15T03:39:38;32.87;;;25.27;;
8654;SDS011;13500;52.514;13.462;2023-04-15T03:42:07;31.00;;;25.20;;
8654;SDS011;13500;52.514;13.462;2023-04-15T03:44:35;31.13;;;23.70;;
8654;SDS011;13500;52.514;13.462;2023-04-15T03:47:03;34.37;;;25.73;;
8654;SDS011;13500;52.514;13.462;2023-04-15T03:49:32;31.23;;;25.33;;
8654;SDS011;13500;52.514;13.462;2023-04-15T03:52:00;29.70;;;24.53;;
8654;SDS011;13500;52.514;13.462;2023-04-15T03:54:28;30.00;;;24.40;;
8654;SDS011;13500;52.514;13.462;2023-04-15T03:56:55;30.23;;;24.23;;
8654;SDS011;13500;52.514;13.462;2023-04-15T03:59:25;26.13;;;22.53;;
8654;SDS011;13500;52.514;13.462;2023-04-15T04:01:53;27.93;;;23.77;;
8654;SDS011;13500;52.514;13.462;2023-04-15T04:04:21;27.57;;;22.60;;
8654;SDS011;13500;52.514;13.462;2023-04-15T04:06:49;29.97;;;23.90;;
8654;SDS011;13500;52.514;13.462;2023-04-15T04:09:17;26.43;;;23.47;;
8654;SDS011;13500;52.514;13.462;2023-04-15T04:11:45;28.63;;;23.20;;
8654;SDS011;13500;52.514;13.462;2023-04-15T04:14:13;26.13;;;22.77;;
8654;SDS011;13500;52.514;13.462;2023-04-15T04:16:42;26.47;;;22.03;;
8654;SDS011;13500;52.514;13.462;2023-04-15T04:19:10;26.87;;;22.87;;
8654;SDS011;13500;52.514;13.462;2023-04-15T04:21:40;24.03;;;21.53;;
8654;SDS011;13500;52.514;13.462;2023-04-15T04:24:07;26.40;;;22.83;;
8654;SDS011;13500;52.514;13.462;2023-04-15T04:26:35;25.77;;;21.60;;
8654;SDS011;13500;52.514;13.462;2023-04-15T04:29:03;24.47;;;21.33;;
8654;SDS011;13500;52.514;13.462;2023-04-15T04:31:31;23.63;;;20.50;;
8654;SDS011;13500;52.514;13.462;2023-04-15T04:34:01;25.00;;;20.67;;
8654;SDS011;13500;52.514;13.462;2023-04-15T04:36:28;24.27;;;20.50;;
8654;SDS011;13500;52.514;13.462;2023-04-15T04:38:57;22.30;;;19.47;;
8654;SDS011;13500;52.514;13.462;2023-04-15T04:41:25;23.03;;;20.40;;
8654;SDS011;13500;52.514;13.462;2023-04-15T04:43:53;24.43;;;19.77;;
8654;SDS011;13500;52.514;13.462;2023-04-15T04:46:21;22.80;;;19.43;;
8654;SDS011;13500;52.514;13.462;2023-04-15T04:48:49;22.37;;;19.90;;
8654;SDS011;13500;52.514;13.462;2023-04-15T04:51:18;22.80;;;19.60;;
8654;SDS011;13500;52.514;13.462;2023-04-15T04:53:46;22.97;;;19.67;;
8654;SDS011;13500;52.514;13.462;2023-04-15T04:56:14;23.63;;;19.63;;
8654;SDS011;13500;52.514;13.462;2023-04-15T04:58:42;23.00;;;20.50;;
8654;SDS011;13500;52.514;13.462;2023-04-15T05:01:10;20.33;;;18.07;;
8654;SDS011;13500;52.514;13.462;2023-04-15T05:03:38;19.73;;;17.63;;
8654;SDS011;13500;52.514;13.462;2023-04-15T05:06:06;22.50;;;17.87;;
8654;SDS011;13500;52.514;13.462;2023-04-15T05:08:35;20.50;;;17.80;;
8654;SDS011;13500;52.514;13.462;2023-04-15T05:11:05;18.33;;;16.43;;
8654;SDS011;13500;52.514;13.462;2023-04-15T05:13:34;20.17;;;17.07;;
8654;SDS011;13500;52.514;13.462;2023-04-15T05:16:04;18.23;;;16.17;;
8654;SDS011;13500;52.514;13.462;2023-04-15T05:18:33;19.50;;;17.30;;
8654;SDS011;13500;52.514;13.462;2023-04-15T05:21:01;18.53;;;16.43;;
8654;SDS011;13500;52.514;13.462;2023-04-15T05:23:29;17.50;;;15.20;;
8654;SDS011;13500;52.514;13.462;2023-04-15T05:25:58;17.57;;;15.67;;
8654;SDS011;13500;52.514;13.462;2023-04-15T05:28:26;19.87;;;16.57;;
8654;SDS011;13500;52.514;13.462;2023-04-15T05:30:54;16.23;;;14.43;;
8654;SDS011;13500;52.514;13.462;2023-04-15T05:33:22;17.70;;;14.90;;
8654;SDS011;13500;52.514;13.462;2023-04-15T05:35:50;18.37;;;15.57;;
8654;SDS011;13500;52.514;13.462;2023-04-15T05:38:18;19.07;;;15.47;;
8654;SDS011;13500;52.514;13.462;2023-04-15T05:40:46;17.87;;;14.63;;
8654;SDS011;13500;52.514;13.462;2023-04-15T05:43:15;17.37;;;15.37;;
8654;SDS011;13500;52.514;13.462;2023-04-15T05:45:43;16.90;;;14.50;;
8654;SDS011;13500;52.514;13.462;2023-04-15T05:48:11;16.37;;;14.67;;
8654;SDS011;13500;52.514;13.462;2023-04-15T05:50:39;15.67;;;14.07;;
8654;SDS011;13500;52.514;13.462;2023-04-15T05:53:07;15.67;;;14.07;;
8654;SDS011;13500;52.514;13.462;2023-04-15T05:55:35;15.60;;;13.90;;
8654;SDS011;13500;52.514;13.462;2023-04-15T05:58:03;15.90;;;14.30;;
8654;SDS011;13500;52.514;13.462;2023-04-15T06:00:32;15.57;;;13.77;;
8654;SDS011;13500;52.514;13.462;2023-04-15T06:03:00;17.20;;;14.23;;
8654;SDS011;13500;52.514;13.462;2023-04-15T06:05:29;17.87;;;13.87;;
8654;SDS011;13500;52.514;13.462;2023-04-15T06:07:57;16.63;;;13.83;;
8654;SDS011;13500;52.514;13.462;2023-04-15T06:10:25;14.97;;;13.47;;
8654;SDS011;13500;52.514;13.462;2023-04-15T06:12:53;13.87;;;12.43;;
8654;SDS011;13500;52.514;13.462;2023-04-15T06:15:21;14.67;;;12.90;;
8654;SDS011;13500;52.514;13.462;2023-04-15T06:17:50;15.83;;;13.33;;
8654;SDS011;13500;52.514;13.462;2023-04-15T06:20:18;14.40;;;12.90;;
8654;SDS011;13500;52.514;13.462;2023-04-15T06:22:46;13.83;;;12.30;;
8654;SDS011;13500;52.514;13.462;2023-04-15T06:25:14;14.43;;;12.93;;
8654;SDS011;13500;52.514;13.462;2023-04-15T06:27:42;13.80;;;12.27;;
8654;SDS011;13500;52.514;13.462;2023-04-15T06:30:10;13.20;;;11.90;;
8654;SDS011;13500;52.514;13.462;2023-04-15T06:32:38;16.00;;;11.90;;
8654;SDS011;13500;52.514;13.462;2023-04-15T06:35:08;12.87;;;11.67;;
8654;SDS011;13500;52.514;13.462;2023-04-15T06:37:37;14.40;;;11.50;;
8654;SDS011;13500;52.514;13.462;2023-04-15T06:40:05;16.50;;;11.93;;
8654;SDS011;13500;52.514;13.462;2023-04-15T06:42:35;12.80;;;11.47;;
8654;SDS011;13500;52.514;13.462;2023-04-15T06:45:04;13.10;;;10.67;;
8654;SDS011;13500;52.514;13.462;2023-04-15T06:47:32;12.47;;;11.17;;
8654;SDS011;13500;52.514;13.462;2023-04-15T06:50:00;15.20;;;11.93;;
8654;SDS011;13500;52.514;13.462;2023-04-15T06:52:30;15.13;;;13.17;;
8654;SDS011;13500;52.514;13.462;2023-04-15T06:54:58;12.40;;;11.10;;
8654;SDS011;13500;52.514;13.462;2023-04-15T06:57:27;12.07;;;10.80;;
8654;SDS011;13500;52.514;13.462;2023-04-15T06:59:55;12.70;;;10.07;;
8654;SDS011;13500;52.514;13.462;2023-04-15T07:02:23;11.47;;;10.27;;
8654;SDS011;13500;52.514;13.462;2023-04-15T07:04:51;14.00;;;10.40;;
8654;SDS011;13500;52.514;13.462;2023-04-15T07:07:19;11.10;;;9.90;;
8654;SDS011;13500;52.514;13.462;2023-04-15T07:09:48;10.63;;;9.53;;
8654;SDS011;13500;52.514;13.462;2023-04-15T07:12:19;11.77;;;10.57;;
8654;SDS011;13500;52.514;13.462;2023-04-15T07:14:47;10.97;;;9.97;;
8654;SDS011;13500;52.514;13.462;2023-04-15T07:17:15;10.87;;;9.97;;
8654;SDS011;13500;52.514;13.462;2023-04-15T07:19:43;10.87;;;9.87;;
8654;SDS011;13500;52.514;13.462;2023-04-15T07:22:10;11.17;;;10.07;;
8654;SDS011;13500;52.514;13.462;2023-04-15T07:24:38;10.63;;;9.63;;
8654;SDS011;13500;52.514;13.462;2023-04-15T07:27:08;10.83;;;9.73;;
8654;SDS011;13500;52.514;13.462;2023-04-15T07:29:36;11.43;;;10.30;;
8654;SDS011;13500;52.514;13.462;2023-04-15T07:32:04;15.90;;;12.73;;
8654;SDS011;13500;52.514;13.462;2023-04-15T07:34:32;12.33;;;10.07;;
8654;SDS011;13500;52.514;13.462;2023-04-15T07:37:00;11.97;;;10.83;;
8654;SDS011;13500;52.514;13.462;2023-04-15T07:39:28;12.17;;;10.90;;
8654;SDS011;13500;52.514;13.462;2023-04-15T07:41:56;12.17;;;10.93;;
8654;SDS011;13500;52.514;13.462;2023-04-15T07:44:26;11.37;;;10.20;;
8654;SDS011;13500;52.514;13.462;2023-04-15T07:46:54;11.67;;;10.53;;
8654;SDS011;13500;52.514;13.462;2023-04-15T07:49:22;13.10;;;11.60;;
8654;SDS011;13500;52.514;13.462;2023-04-15T07:51:51;12.33;;;11.03;;
8654;SDS011;13500;52.514;13.462;2023-04-15T07:54:18;12.00;;;10.80;;
8654;SDS011;13500;52.514;13.462;2023-04-15T07:56:46;12.17;;;11.03;;
8654;SDS011;13500;52.514;13.462;2023-04-15T07:59:16;12.40;;;11.10;;
8654;SDS011;13500;52.514;13.462;2023-04-15T08:01:46;12.13;;;10.93;;
8654;SDS011;13500;52.514;13.462;2023-04-15T08:04:14;13.70;;;11.03;;
8654;SDS011;13500;52.514;13.462;2023-04-15T08:06:42;13.77;;;11.60;;
8654;SDS011;13500;52.514;13.462;2023-04-15T08:09:10;13.10;;;11.63;;
8654;SDS011;13500;52.514;13.462;2023-04-15T08:11:39;12.63;;;11.37;;
8654;SDS011;13500;52.514;13.462;2023-04-15T08:14:09;13.13;;;11.87;;
8654;SDS011;13500;52.514;13.462;2023-04-15T08:16:37;12.57;;;11.27;;
8654;SDS011;13500;52.514;13.462;2023-04-15T08:19:06;12.43;;;11.23;;
8654;SDS011;13500;52.514;13.462;2023-04-15T08:21:35;12.83;;;11.53;;
8654;SDS011;13500;52.514;13.462;2023-04-15T08:24:03;13.37;;;12.17;;
8654;SDS011;13500;52.514;13.462;2023-04-15T08:26:31;13.10;;;11.80;;
8654;SDS011;13500;52.514;13.462;2023-04-15T08:28:59;13.97;;;12.57;;
8654;SDS011;13500;52.514;13.462;2023-04-15T08:31:28;13.63;;;12.33;;
8654;SDS011;13500;52.514;13.462;2023-04-15T08:33:56;13.77;;;12.37;;
8654;SDS011;13500;52.514;13.462;2023-04-15T08:36:26;13.60;;;12.30;;
8654;SDS011;13500;52.514;13.462;2023-04-15T08:38:53;13.60;;;12.20;;
8654;SDS011;13500;52.514;13.462;2023-04-15T08:41:22;12.50;;;11.20;;
8654;SDS011;13500;52.514;13.462;2023-04-15T08:43:51;13.77;;;12.27;;
8654;SDS011;13500;52.514;13.462;2023-04-15T08:46:21;13.77;;;12.30;;
8654;SDS011;13500;52.514;13.462;2023-04-15T08:48:49;13.60;;;12.30;;
8654;SDS011;13500;52.514;13.462;2023-04-15T08:51:17;13.37;;;12.13;;
8654;SDS011;13500;52.514;13.462;2023-04-15T08:53:46;14.40;;;13.00;;
8654;SDS011;13500;52.514;13.462;2023-04-15T08:56:15;13.00;;;11.70;;
8654;SDS011;13500;52.514;13.462;2023-04-15T08:58:43;13.03;;;11.67;;
8654;SDS011;13500;52.514;13.462;2023-04-15T09:01:12;13.77;;;12.50;;
8654;SDS011;13500;52.514;13.462;2023-04-15T09:03:40;14.07;;;12.73;;
8654;SDS011;13500;52.514;13.462;2023-04-15T09:06:09;13.47;;;12.17;;
8654;SDS011;13500;52.514;13.462;2023-04-15T09:08:37;12.90;;;11.70;;
8654;SDS011;13500;52.514;13.462;2023-04-15T09:11:06;13.07;;;11.87;;
8654;SDS011;13500;52.514;13.462;2023-04-15T09:13:34;13.07;;;11.67;;
8654;SDS011;13500;52.514;13.462;2023-04-15T09:16:02;13.70;;;12.40;;
8654;SDS011;13500;52.514;13.462;2023-04-15T09:18:33;13.97;;;12.57;;
8654;SDS011;13500;52.514;13.462;2023-04-15T09:21:05;13.83;;;12.57;;
8654;SDS011;13500;52.514;13.462;2023-04-15T09:23:34;15.37;;;12.60;;
8654;SDS011;13500;52.514;13.462;2023-04-15T09:26:02;13.60;;;12.20;;
8654;SDS011;13500;52.514;13.462;2023-04-15T09:28:32;23.47;;;21.20;;
8654;SDS011;13500;52.514;13.462;2023-04-15T09:31:01;13.17;;;11.97;;
8654;SDS011;13500;52.514;13.462;2023-04-15T09:33:29;13.13;;;11.90;;
8654;SDS011;13500;52.514;13.462;2023-04-15T09:35:58;13.77;;;12.30;;
8654;SDS011;13500;52.514;13.462;2023-04-15T09:38:26;12.67;;;11.50;;
8654;SDS011;13500;52.514;13.462;2023-04-15T09:40:54;11.87;;;10.77;;
8654;SDS011;13500;52.514;13.462;2023-04-15T09:43:28;12.40;;;11.20;;
8654;SDS011;13500;52.514;13.462;2023-04-15T09:46:05;13.93;;;12.00;;
8654;SDS011;13500;52.514;13.462;2023-04-15T09:48:33;13.03;;;11.73;;
8654;SDS011;13500;52.514;13.462;2023-04-15T09:51:01;13.07;;;11.77;;
8654;SDS011;13500;52.514;13.462;2023-04-15T09:53:31;13.30;;;12.00;;
8654;SDS011;13500;52.514;13.462;2023-04-15T09:56:00;13.00;;;11.80;;
8654;SDS011;13500;52.514;13.462;2023-04-15T09:58:30;13.27;;;11.97;;
8654;SDS011;13500;52.514;13.462;2023-04-15T10:01:01;13.20;;;11.90;;
8654;SDS011;13500;52.514;13.462;2023-04-15T10:03:32;13.43;;;12.23;;
8654;SDS011;13500;52.514;13.462;2023-04-15T10:06:02;13.20;;;11.30;;
8654;SDS011;13500;52.514;13.462;2023-04-15T10:08:31;13.80;;;12.17;;
8654;SDS011;13500;52.514;13.462;2023-04-15T10:11:00;14.43;;;12.93;;
8654;SDS011;13500;52.514;13.462;2023-04-15T10:13:29;14.60;;;13.20;;
8654;SDS011;13500;52.514;13.462;2023-04-15T10:16:04;13.37;;;12.07;;
8654;SDS011;13500;52.514;13.462;2023-04-15T10:18:34;14.10;;;12.80;;
8654;SDS011;13500;52.514;13.462;2023-04-15T10:21:02;13.27;;;12.07;;
8654;SDS011;13500;52.514;13.462;2023-04-15T10:23:32;12.60;;;11.37;;
8654;SDS011;13500;52.514;13.462;2023-04-15T10:26:01;12.97;;;11.67;;
8654;SDS011;13500;52.514;13.462;2023-04-15T10:28:30;13.53;;;12.23;;
8654;SDS011;13500;52.514;13.462;2023-04-15T10:30:58;14.17;;;12.87;;
8654;SDS011;13500;52.514;13.462;2023-04-15T10:33:28;14.23;;;12.63;;
8654;SDS011;13500;52.514;13.462;2023-04-15T10:35:56;12.20;;;11.00;;
8654;SDS011;13500;52.514;13.462;2023-04-15T10:38:31;12.20;;;11.00;;
8654;SDS011;13500;52.514;13.462;2023-04-15T10:41:11;11.63;;;10.53;;
8654;SDS011;13500;52.514;13.462;2023-04-15T10:43:50;11.37;;;10.37;;
8654;SDS011;13500;52.514;13.462;2023-04-15T10:46:20;11.57;;;10.37;;
8654;SDS011;13500;52.514;13.462;2023-04-15T10:48:52;10.70;;;9.70;;
8654;SDS011;13500;52.514;13.462;2023-04-15T10:51:27;11.40;;;10.30;;
8654;SDS011;13500;52.514;13.462;2023-04-15T10:53:56;10.63;;;9.63;;
8654;SDS011;13500;52.514;13.462;2023-04-15T10:56:27;11.80;;;10.63;;
8654;SDS011;13500;52.514;13.462;2023-04-15T10:58:57;13.13;;;11.93;;
8654;SDS011;13500;52.514;13.462;2023-04-15T11:07:35;10.83;;;9.83;;
8654;SDS011;13500;52.514;13.462;2023-04-15T11:10:06;11.97;;;10.77;;
8654;SDS011;13500;52.514;13.462;2023-04-15T11:13:21;11.97;;;10.87;;
8654;SDS011;13500;52.514;13.462;2023-04-15T11:15:53;12.27;;;11.17;;
8654;SDS011;13500;52.514;13.462;2023-04-15T11:18:24;12.60;;;11.30;;
8654;SDS011;13500;52.514;13.462;2023-04-15T11:20:56;12.10;;;11.00;;
8654;SDS011;13500;52.514;13.462;2023-04-15T11:23:29;12.70;;;11.50;;
8654;SDS011;13500;52.514;13.462;2023-04-15T11:25:59;12.60;;;11.50;;
8654;SDS011;13500;52.514;13.462;2023-04-15T11:28:28;12.80;;;11.60;;
8654;SDS011;13500;52.514;13.462;2023-04-15T11:30:57;11.80;;;10.70;;
8654;SDS011;13500;52.514;13.462;2023-04-15T11:33:25;12.20;;;10.90;;
8654;SDS011;13500;52.514;13.462;2023-04-15T11:35:54;11.97;;;10.80;;
8654;SDS011;13500;52.514;13.462;2023-04-15T11:38:22;11.63;;;10.53;;
8654;SDS011;13500;52.514;13.462;2023-04-15T11:40:50;11.97;;;10.87;;
8654;SDS011;13500;52.514;13.462;2023-04-15T11:43:19;12.03;;;10.90;;
8654;SDS011;13500;52.514;13.462;2023-04-15T11:45:49;11.20;;;10.10;;
8654;SDS011;13500;52.514;13.462;2023-04-15T11:48:19;12.57;;;11.47;;
8654;SDS011;13500;52.514;13.462;2023-04-15T11:50:51;11.77;;;10.57;;
8654;SDS011;13500;52.514;13.462;2023-04-15T11:53:23;11.57;;;10.57;;
8654;SDS011;13500;52.514;13.462;2023-04-15T11:55:52;11.80;;;10.67;;
8654;SDS011;13500;52.514;13.462;2023-04-15T11:58:21;11.10;;;10.07;;
8654;SDS011;13500;52.514;13.462;2023-04-15T12:00:51;11.37;;;10.27;;
8654;SDS011;13500;52.514;13.462;2023-04-15T12:03:21;11.40;;;10.30;;
8654;SDS011;13500;52.514;13.462;2023-04-15T12:06:12;12.07;;;10.97;;
8654;SDS011;13500;52.514;13.462;2023-04-15T12:09:02;12.67;;;11.53;;
8654;SDS011;13500;52.514;13.462;2023-04-15T12:11:38;11.90;;;10.70;;
8654;SDS011;13500;52.514;13.462;2023-04-15T12:14:08;11.17;;;10.17;;
8654;SDS011;13500;52.514;13.462;2023-04-15T12:16:39;11.67;;;10.53;;
8654;SDS011;13500;52.514;13.462;2023-04-15T12:19:15;11.90;;;10.80;;
8654;SDS011;13500;52.514;13.462;2023-04-15T12:21:45;10.83;;;9.83;;
8654;SDS011;13500;52.514;13.462;2023-04-15T12:24:18;11.47;;;10.37;;
8654;SDS011;13500;52.514;13.462;2023-04-15T12:26:47;10.53;;;9.50;;
8654;SDS011;13500;52.514;13.462;2023-04-15T12:29:16;11.07;;;9.80;;
8654;SDS011;13500;52.514;13.462;2023-04-15T12:31:53;11.20;;;9.80;;
8654;SDS011;13500;52.514;13.462;2023-04-15T12:34:25;10.10;;;9.20;;
8654;SDS011;13500;52.514;13.462;2023-04-15T12:36:55;9.20;;;8.40;;
8654;SDS011;13500;52.514;13.462;2023-04-15T12:39:25;9.47;;;8.57;;
8654;SDS011;13500;52.514;13.462;2023-04-15T12:41:56;9.27;;;8.37;;
8654;SDS011;13500;52.514;13.462;2023-04-15T12:44:24;8.87;;;8.13;;
8654;SDS011;13500;52.514;13.462;2023-04-15T12:46:53;8.77;;;7.97;;
8654;SDS011;13500;52.514;13.462;2023-04-15T12:49:22;8.20;;;7.47;;
8654;SDS011;13500;52.514;13.462;2023-04-15T12:51:51;8.70;;;7.90;;
8654;SDS011;13500;52.514;13.462;2023-04-15T12:54:20;8.33;;;7.63;;
8654;SDS011;13500;52.514;13.462;2023-04-15T12:56:49;9.17;;;8.23;;
8654;SDS011;13500;52.514;13.462;2023-04-15T12:59:17;8.47;;;7.67;;
8654;SDS011;13500;52.514;13.462;2023-04-15T13:01:45;9.00;;;8.10;;
8654;SDS011;13500;52.514;13.462;2023-04-15T13:04:14;9.07;;;8.20;;
8654;SDS011;13500;52.514;13.462;2023-04-15T13:06:42;10.20;;;9.30;;
8654;SDS011;13500;52.514;13.462;2023-04-15T13:09:11;9.83;;;8.83;;
8654;SDS011;13500;52.514;13.462;2023-04-15T13:11:39;10.13;;;9.17;;
8654;SDS011;13500;52.514;13.462;2023-04-15T13:14:08;10.03;;;9.03;;
8654;SDS011;13500;52.514;13.462;2023-04-15T13:16:36;8.47;;;7.77;;
8654;SDS011;13500;52.514;13.462;2023-04-15T13:19:05;8.70;;;7.90;;
8654;SDS011;13500;52.514;13.462;2023-04-15T13:21:33;8.43;;;7.63;;
8654;SDS011;13500;52.514;13.462;2023-04-15T13:24:02;7.87;;;7.20;;
8654;SDS011;13500;52.514;13.462;2023-04-15T13:26:32;9.37;;;8.47;;
8654;SDS011;13500;52.514;13.462;2023-04-15T13:29:00;30.73;;;27.63;;
8654;SDS011;13500;52.514;13.462;2023-04-15T13:31:29;8.13;;;7.40;;
8654;SDS011;13500;52.514;13.462;2023-04-15T13:33:57;7.20;;;6.50;;
8654;SDS011;13500;52.514;13.462;2023-04-15T13:36:25;6.93;;;6.30;;
8654;SDS011;13500;52.514;13.462;2023-04-15T13:38:53;6.97;;;6.37;;
8654;SDS011;13500;52.514;13.462;2023-04-15T13:41:22;5.70;;;5.20;;
8654;SDS011;13500;52.514;13.462;2023-04-15T13:43:50;6.70;;;6.10;;
8654;SDS011;13500;52.514;13.462;2023-04-15T13:46:18;6.77;;;6.17;;
8654;SDS011;13500;52.514;13.462;2023-04-15T13:48:47;7.93;;;6.10;;
8654;SDS011;13500;52.514;13.462;2023-04-15T13:51:15;7.03;;;6.43;;
8654;SDS011;13500;52.514;13.462;2023-04-15T13:53:43;7.37;;;6.70;;
8654;SDS011;13500;52.514;13.462;2023-04-15T13:56:11;8.30;;;7.50;;
8654;SDS011;13500;52.514;13.462;2023-04-15T13:58:39;8.07;;;7.27;;
8654;SDS011;13500;52.514;13.462;2023-04-15T14:01:07;7.87;;;7.17;;
8654;SDS011;13500;52.514;13.462;2023-04-15T14:03:35;7.17;;;6.47;;
8654;SDS011;13500;52.514;13.462;2023-04-15T14:06:05;8.30;;;6.90;;
8654;SDS011;13500;52.514;13.462;2023-04-15T14:08:33;6.83;;;6.23;;
8654;SDS011;13500;52.514;13.462;2023-04-15T14:11:01;6.40;;;5.80;;
8654;SDS011;13500;52.514;13.462;2023-04-15T14:13:29;6.83;;;6.03;;
8654;SDS011;13500;52.514;13.462;2023-04-15T14:15:57;7.40;;;6.70;;
8654;SDS011;13500;52.514;13.462;2023-04-15T14:18:25;7.00;;;6.37;;
8654;SDS011;13500;52.514;13.462;2023-04-15T14:20:52;6.77;;;6.17;;
8654;SDS011;13500;52.514;13.462;2023-04-15T14:23:22;6.37;;;5.83;;
8654;SDS011;13500;52.514;13.462;2023-04-15T14:25:50;6.30;;;5.80;;
8654;SDS011;13500;52.514;13.462;2023-04-15T14:28:18;7.80;;;7.00;;
8654;SDS011;13500;52.514;13.462;2023-04-15T14:30:46;7.23;;;6.53;;
8654;SDS011;13500;52.514;13.462;2023-04-15T14:33:14;6.60;;;6.00;;
8654;SDS011;13500;52.514;13.462;2023-04-15T14:35:42;6.30;;;5.80;;
8654;SDS011;13500;52.514;13.462;2023-04-15T14:38:10;6.03;;;5.53;;
8654;SDS011;13500;52.514;13.462;2023-04-15T14:40:39;5.97;;;5.47;;
8654;SDS011;13500;52.514;13.462;2023-04-15T14:43:07;6.33;;;5.83;;